sensor_id;sensor_type;location;lat;lon;timestamp;P1;durP1;ratioP1;P2;durP2;ratioP2
57337;SDS011;43173;50.980;18.204;2023-10-13T00:01:48;23.60;;;12.60;;
57337;SDS011;43173;50.980;18.204;2023-10-13T00:04:17;21.90;;;12.50;;
57337;SDS011;43173;50.980;18.204;2023-10-13T00:06:47;22.80;;;12.40;;
57337;SDS011;43173;50.980;18.204;2023-10-13T00:09:13;26.40;;;13.60;;
57337;SDS011;43173;50.980;18.204;2023-10-13T00:11:43;21.80;;;13.30;;
57337;SDS011;43173;50.980;18.204;2023-10-13T00:14:12;26.10;;;13.70;;
57337;SDS011;43173;50.980;18.204;2023-10-13T00:16:44;26.60;;;13.80;;
57337;SDS011;43173;50.980;18.204;2023-10-13T00:19:33;25.00;;;13.60;;
57337;SDS011;43173;50.980;18.204;2023-10-13T00:22:09;26.70;;;14.50;;
57337;SDS011;43173;50.980;18.204;2023-10-13T00:24:36;22.80;;;14.90;;
57337;SDS011;43173;50.980;18.204;2023-10-13T00:27:17;25.20;;;13.70;;
57337;SDS011;43173;50.980;18.204;2023-10-13T00:30:04;24.30;;;13.90;;
57337;SDS011;43173;50.980;18.204;2023-10-13T00:32:47;26.00;;;14.60;;
57337;SDS011;43173;50.980;18.204;2023-10-13T00:35:20;28.00;;;14.60;;
57337;SDS011;43173;50.980;18.204;2023-10-13T00:37:53;28.10;;;15.80;;
57337;SDS011;43173;50.980;18.204;2023-10-13T00:40:22;24.20;;;14.60;;
57337;SDS011;43173;50.980;18.204;2023-10-13T00:43:04;34.70;;;15.90;;
57337;SDS011;43173;50.980;18.204;2023-10-13T00:48:35;27.10;;;14.50;;
57337;SDS011;43173;50.980;18.204;2023-10-13T00:51:08;26.40;;;15.10;;
57337;SDS011;43173;50.980;18.204;2023-10-13T00:53:47;25.40;;;15.30;;
57337;SDS011;43173;50.980;18.204;2023-10-13T00:56:14;24.80;;;14.70;;
57337;SDS011;43173;50.980;18.204;2023-10-13T00:58:47;27.00;;;13.70;;
57337;SDS011;43173;50.980;18.204;2023-10-13T01:01:18;23.70;;;13.90;;
57337;SDS011;43173;50.980;18.204;2023-10-13T01:03:51;21.90;;;14.80;;
57337;SDS011;43173;50.980;18.204;2023-10-13T01:06:21;26.40;;;13.80;;
57337;SDS011;43173;50.980;18.204;2023-10-13T01:09:11;23.10;;;14.20;;
57337;SDS011;43173;50.980;18.204;2023-10-13T01:11:47;25.80;;;14.20;;
57337;SDS011;43173;50.980;18.204;2023-10-13T01:14:20;24.10;;;13.20;;
57337;SDS011;43173;50.980;18.204;2023-10-13T01:16:47;27.00;;;13.50;;
57337;SDS011;43173;50.980;18.204;2023-10-13T01:19:15;20.00;;;12.40;;
57337;SDS011;43173;50.980;18.204;2023-10-13T01:21:50;21.40;;;13.20;;
57337;SDS011;43173;50.980;18.204;2023-10-13T01:24:22;25.60;;;13.50;;
57337;SDS011;43173;50.980;18.204;2023-10-13T01:26:50;25.20;;;12.80;;
57337;SDS011;43173;50.980;18.204;2023-10-13T01:29:18;20.00;;;12.60;;
57337;SDS011;43173;50.980;18.204;2023-10-13T01:31:45;20.80;;;12.30;;
57337;SDS011;43173;50.980;18.204;2023-10-13T01:34:12;24.00;;;12.90;;
57337;SDS011;43173;50.980;18.204;2023-10-13T01:36:57;19.80;;;12.40;;
57337;SDS011;43173;50.980;18.204;2023-10-13T01:39:30;21.00;;;12.50;;
57337;SDS011;43173;50.980;18.204;2023-10-13T01:41:56;24.50;;;14.30;;
57337;SDS011;43173;50.980;18.204;2023-10-13T01:44:25;24.90;;;13.40;;
57337;SDS011;43173;50.980;18.204;2023-10-13T01:46:56;27.30;;;13.30;;
57337;SDS011;43173;50.980;18.204;2023-10-13T01:49:24;25.10;;;13.00;;
57337;SDS011;43173;50.980;18.204;2023-10-13T01:51:50;23.70;;;13.30;;
57337;SDS011;43173;50.980;18.204;2023-10-13T01:54:16;21.20;;;12.70;;
57337;SDS011;43173;50.980;18.204;2023-10-13T01:56:43;23.60;;;13.60;;
57337;SDS011;43173;50.980;18.204;2023-10-13T01:59:11;25.20;;;13.60;;
57337;SDS011;43173;50.980;18.204;2023-10-13T02:01:38;24.10;;;14.10;;
57337;SDS011;43173;50.980;18.204;2023-10-13T02:04:05;26.70;;;14.40;;
57337;SDS011;43173;50.980;18.204;2023-10-13T02:06:32;23.30;;;14.60;;
57337;SDS011;43173;50.980;18.204;2023-10-13T02:09:05;26.10;;;14.40;;
57337;SDS011;43173;50.980;18.204;2023-10-13T02:11:48;25.00;;;14.00;;
57337;SDS011;43173;50.980;18.204;2023-10-13T02:16:48;22.50;;;13.50;;
57337;SDS011;43173;50.980;18.204;2023-10-13T02:19:16;25.50;;;13.80;;
57337;SDS011;43173;50.980;18.204;2023-10-13T02:21:44;24.30;;;13.80;;
57337;SDS011;43173;50.980;18.204;2023-10-13T02:24:11;21.20;;;13.50;;
57337;SDS011;43173;50.980;18.204;2023-10-13T02:26:43;26.10;;;14.70;;
57337;SDS011;43173;50.980;18.204;2023-10-13T02:29:10;23.80;;;14.50;;
57337;SDS011;43173;50.980;18.204;2023-10-13T02:31:42;24.90;;;15.00;;
57337;SDS011;43173;50.980;18.204;2023-10-13T02:34:08;28.40;;;19.70;;
57337;SDS011;43173;50.980;18.204;2023-10-13T02:36:37;28.40;;;18.80;;
57337;SDS011;43173;50.980;18.204;2023-10-13T02:39:19;26.60;;;15.50;;
57337;SDS011;43173;50.980;18.204;2023-10-13T02:41:58;25.80;;;17.20;;
57337;SDS011;43173;50.980;18.204;2023-10-13T02:44:23;32.60;;;24.00;;
57337;SDS011;43173;50.980;18.204;2023-10-13T02:46:53;34.10;;;27.00;;
57337;SDS011;43173;50.980;18.204;2023-10-13T02:49:27;40.10;;;29.70;;
57337;SDS011;43173;50.980;18.204;2023-10-13T02:51:56;38.90;;;27.20;;
57337;SDS011;43173;50.980;18.204;2023-10-13T02:54:24;35.30;;;25.60;;
57337;SDS011;43173;50.980;18.204;2023-10-13T02:56:55;29.70;;;19.00;;
57337;SDS011;43173;50.980;18.204;2023-10-13T02:59:29;30.30;;;20.90;;
57337;SDS011;43173;50.980;18.204;2023-10-13T03:02:15;37.40;;;25.40;;
57337;SDS011;43173;50.980;18.204;2023-10-13T03:04:57;26.60;;;18.20;;
57337;SDS011;43173;50.980;18.204;2023-10-13T03:07:34;24.50;;;15.70;;
57337;SDS011;43173;50.980;18.204;2023-10-13T03:10:02;26.00;;;16.70;;
57337;SDS011;43173;50.980;18.204;2023-10-13T03:12:44;28.30;;;15.50;;
57337;SDS011;43173;50.980;18.204;2023-10-13T03:15:14;25.60;;;15.00;;
57337;SDS011;43173;50.980;18.204;2023-10-13T03:17:43;25.40;;;15.60;;
57337;SDS011;43173;50.980;18.204;2023-10-13T03:20:13;25.70;;;16.60;;
57337;SDS011;43173;50.980;18.204;2023-10-13T03:22:41;36.10;;;19.20;;
57337;SDS011;43173;50.980;18.204;2023-10-13T03:25:13;34.80;;;18.10;;
57337;SDS011;43173;50.980;18.204;2023-10-13T03:27:53;32.40;;;19.20;;
57337;SDS011;43173;50.980;18.204;2023-10-13T03:30:19;30.80;;;18.00;;
57337;SDS011;43173;50.980;18.204;2023-10-13T03:32:47;29.20;;;18.10;;
57337;SDS011;43173;50.980;18.204;2023-10-13T03:35:20;30.40;;;17.50;;
57337;SDS011;43173;50.980;18.204;2023-10-13T03:40:49;25.00;;;14.80;;
57337;SDS011;43173;50.980;18.204;2023-10-13T03:43:23;26.30;;;15.10;;
57337;SDS011;43173;50.980;18.204;2023-10-13T03:45:49;26.90;;;15.20;;
57337;SDS011;43173;50.980;18.204;2023-10-13T03:48:30;29.10;;;16.90;;
57337;SDS011;43173;50.980;18.204;2023-10-13T03:51:00;26.40;;;15.90;;
57337;SDS011;43173;50.980;18.204;2023-10-13T03:53:35;33.60;;;17.20;;
57337;SDS011;43173;50.980;18.204;2023-10-13T03:56:05;31.50;;;17.70;;
57337;SDS011;43173;50.980;18.204;2023-10-13T03:58:40;33.60;;;19.20;;
57337;SDS011;43173;50.980;18.204;2023-10-13T04:01:12;48.40;;;23.20;;
57337;SDS011;43173;50.980;18.204;2023-10-13T04:03:42;41.30;;;22.80;;
57337;SDS011;43173;50.980;18.204;2023-10-13T04:06:23;36.70;;;20.00;;
57337;SDS011;43173;50.980;18.204;2023-10-13T04:09:09;29.70;;;18.70;;
57337;SDS011;43173;50.980;18.204;2023-10-13T04:11:54;28.50;;;18.40;;
57337;SDS011;43173;50.980;18.204;2023-10-13T04:14:32;33.20;;;19.70;;
57337;SDS011;43173;50.980;18.204;2023-10-13T04:17:15;67.00;;;30.90;;
57337;SDS011;43173;50.980;18.204;2023-10-13T04:19:49;84.60;;;40.80;;
57337;SDS011;43173;50.980;18.204;2023-10-13T04:22:36;110.00;;;52.60;;
57337;SDS011;43173;50.980;18.204;2023-10-13T04:25:20;83.10;;;41.90;;
57337;SDS011;43173;50.980;18.204;2023-10-13T04:28:12;70.20;;;36.00;;
57337;SDS011;43173;50.980;18.204;2023-10-13T04:30:39;59.10;;;32.20;;
57337;SDS011;43173;50.980;18.204;2023-10-13T04:33:24;62.70;;;34.90;;
57337;SDS011;43173;50.980;18.204;2023-10-13T04:36:01;68.10;;;32.30;;
57337;SDS011;43173;50.980;18.204;2023-10-13T04:38:45;60.80;;;31.60;;
57337;SDS011;43173;50.980;18.204;2023-10-13T04:41:28;57.80;;;30.20;;
57337;SDS011;43173;50.980;18.204;2023-10-13T04:44:03;57.00;;;28.90;;
57337;SDS011;43173;50.980;18.204;2023-10-13T04:46:45;48.30;;;28.30;;
57337;SDS011;43173;50.980;18.204;2023-10-13T04:49:11;42.30;;;26.00;;
57337;SDS011;43173;50.980;18.204;2023-10-13T04:51:53;43.80;;;25.60;;
57337;SDS011;43173;50.980;18.204;2023-10-13T04:54:30;37.70;;;20.90;;
57337;SDS011;43173;50.980;18.204;2023-10-13T04:57:00;37.90;;;21.00;;
57337;SDS011;43173;50.980;18.204;2023-10-13T04:59:42;40.30;;;19.60;;
57337;SDS011;43173;50.980;18.204;2023-10-13T05:02:23;34.90;;;18.60;;
57337;SDS011;43173;50.980;18.204;2023-10-13T05:05:09;29.80;;;18.20;;
57337;SDS011;43173;50.980;18.204;2023-10-13T05:07:47;29.40;;;17.00;;
57337;SDS011;43173;50.980;18.204;2023-10-13T05:10:29;30.20;;;18.10;;
57337;SDS011;43173;50.980;18.204;2023-10-13T05:13:11;30.80;;;17.50;;
57337;SDS011;43173;50.980;18.204;2023-10-13T05:18:35;29.20;;;17.70;;
57337;SDS011;43173;50.980;18.204;2023-10-13T05:21:17;34.90;;;18.20;;
57337;SDS011;43173;50.980;18.204;2023-10-13T05:23:59;31.40;;;18.30;;
57337;SDS011;43173;50.980;18.204;2023-10-13T05:26:41;30.50;;;18.00;;
57337;SDS011;43173;50.980;18.204;2023-10-13T05:29:22;33.60;;;18.20;;
57337;SDS011;43173;50.980;18.204;2023-10-13T05:32:04;31.90;;;18.50;;
57337;SDS011;43173;50.980;18.204;2023-10-13T05:34:44;30.60;;;17.40;;
57337;SDS011;43173;50.980;18.204;2023-10-13T05:40:08;32.70;;;17.70;;
57337;SDS011;43173;50.980;18.204;2023-10-13T05:42:49;34.10;;;18.90;;
57337;SDS011;43173;50.980;18.204;2023-10-13T05:48:22;29.40;;;17.50;;
57337;SDS011;43173;50.980;18.204;2023-10-13T05:51:06;29.50;;;19.00;;
57337;SDS011;43173;50.980;18.204;2023-10-13T05:53:55;35.00;;;19.70;;
57337;SDS011;43173;50.980;18.204;2023-10-13T05:56:36;43.50;;;20.10;;
57337;SDS011;43173;50.980;18.204;2023-10-13T05:59:17;37.40;;;20.40;;
57337;SDS011;43173;50.980;18.204;2023-10-13T06:04:40;35.80;;;20.10;;
57337;SDS011;43173;50.980;18.204;2023-10-13T06:07:21;42.50;;;23.80;;
57337;SDS011;43173;50.980;18.204;2023-10-13T06:10:02;36.90;;;20.90;;
57337;SDS011;43173;50.980;18.204;2023-10-13T06:12:43;39.50;;;21.20;;
57337;SDS011;43173;50.980;18.204;2023-10-13T06:15:24;38.70;;;21.50;;
57337;SDS011;43173;50.980;18.204;2023-10-13T06:18:05;38.20;;;21.00;;
57337;SDS011;43173;50.980;18.204;2023-10-13T06:20:47;37.40;;;21.40;;
57337;SDS011;43173;50.980;18.204;2023-10-13T06:26:10;35.50;;;20.70;;
57337;SDS011;43173;50.980;18.204;2023-10-13T06:28:51;34.30;;;20.40;;
57337;SDS011;43173;50.980;18.204;2023-10-13T06:31:17;38.10;;;22.20;;
57337;SDS011;43173;50.980;18.204;2023-10-13T06:46:42;35.70;;;19.80;;
57337;SDS011;43173;50.980;18.204;2023-10-13T06:49:08;29.90;;;17.20;;
57337;SDS011;43173;50.980;18.204;2023-10-13T06:51:36;28.10;;;16.80;;
57337;SDS011;43173;50.980;18.204;2023-10-13T06:54:05;30.10;;;17.60;;
57337;SDS011;43173;50.980;18.204;2023-10-13T06:56:35;27.80;;;18.00;;
57337;SDS011;43173;50.980;18.204;2023-10-13T06:59:05;34.90;;;17.30;;
57337;SDS011;43173;50.980;18.204;2023-10-13T07:01:31;32.40;;;17.50;;
57337;SDS011;43173;50.980;18.204;2023-10-13T07:04:05;29.10;;;18.00;;
57337;SDS011;43173;50.980;18.204;2023-10-13T07:06:40;35.00;;;18.00;;
57337;SDS011;43173;50.980;18.204;2023-10-13T07:09:13;31.10;;;18.00;;
57337;SDS011;43173;50.980;18.204;2023-10-13T07:11:58;33.10;;;18.80;;
57337;SDS011;43173;50.980;18.204;2023-10-13T07:14:28;29.50;;;17.70;;
57337;SDS011;43173;50.980;18.204;2023-10-13T07:16:55;31.40;;;18.00;;
57337;SDS011;43173;50.980;18.204;2023-10-13T07:19:26;26.10;;;16.60;;
57337;SDS011;43173;50.980;18.204;2023-10-13T07:21:55;28.00;;;17.30;;
57337;SDS011;43173;50.980;18.204;2023-10-13T07:24:25;30.20;;;18.30;;
57337;SDS011;43173;50.980;18.204;2023-10-13T07:26:57;31.40;;;18.00;;
57337;SDS011;43173;50.980;18.204;2023-10-13T07:29:31;27.10;;;17.90;;
57337;SDS011;43173;50.980;18.204;2023-10-13T07:32:01;31.60;;;17.70;;
57337;SDS011;43173;50.980;18.204;2023-10-13T07:34:28;26.20;;;16.00;;
57337;SDS011;43173;50.980;18.204;2023-10-13T07:36:58;27.20;;;17.50;;
57337;SDS011;43173;50.980;18.204;2023-10-13T07:39:33;29.90;;;16.70;;
57337;SDS011;43173;50.980;18.204;2023-10-13T07:41:59;25.80;;;16.10;;
57337;SDS011;43173;50.980;18.204;2023-10-13T07:44:29;27.90;;;16.60;;
57337;SDS011;43173;50.980;18.204;2023-10-13T07:47:01;28.30;;;16.30;;
57337;SDS011;43173;50.980;18.204;2023-10-13T07:49:33;27.00;;;16.60;;
57337;SDS011;43173;50.980;18.204;2023-10-13T07:52:02;26.00;;;15.80;;
57337;SDS011;43173;50.980;18.204;2023-10-13T07:54:48;29.70;;;16.50;;
57337;SDS011;43173;50.980;18.204;2023-10-13T07:57:21;25.30;;;16.40;;
57337;SDS011;43173;50.980;18.204;2023-10-13T07:59:57;29.20;;;16.40;;
57337;SDS011;43173;50.980;18.204;2023-10-13T08:02:39;25.80;;;15.10;;
57337;SDS011;43173;50.980;18.204;2023-10-13T08:08:02;24.90;;;16.60;;
57337;SDS011;43173;50.980;18.204;2023-10-13T08:10:35;27.70;;;16.90;;
57337;SDS011;43173;50.980;18.204;2023-10-13T08:13:01;29.30;;;17.40;;
57337;SDS011;43173;50.980;18.204;2023-10-13T08:15:27;25.90;;;16.80;;
57337;SDS011;43173;50.980;18.204;2023-10-13T08:17:59;29.10;;;16.70;;
57337;SDS011;43173;50.980;18.204;2023-10-13T08:20:30;25.60;;;17.00;;
57337;SDS011;43173;50.980;18.204;2023-10-13T08:25:43;27.00;;;16.20;;
57337;SDS011;43173;50.980;18.204;2023-10-13T08:31:06;27.90;;;16.50;;
57337;SDS011;43173;50.980;18.204;2023-10-13T08:33:48;27.80;;;17.30;;
57337;SDS011;43173;50.980;18.204;2023-10-13T08:36:14;25.80;;;16.90;;
57337;SDS011;43173;50.980;18.204;2023-10-13T08:38:56;25.10;;;16.00;;
57337;SDS011;43173;50.980;18.204;2023-10-13T08:41:22;25.80;;;15.80;;
57337;SDS011;43173;50.980;18.204;2023-10-13T08:43:49;25.70;;;15.50;;
57337;SDS011;43173;50.980;18.204;2023-10-13T08:46:16;25.10;;;14.90;;
57337;SDS011;43173;50.980;18.204;2023-10-13T08:48:59;28.00;;;16.10;;
57337;SDS011;43173;50.980;18.204;2023-10-13T08:51:41;26.10;;;15.20;;
57337;SDS011;43173;50.980;18.204;2023-10-13T08:56:46;20.90;;;13.30;;
57337;SDS011;43173;50.980;18.204;2023-10-13T08:59:20;20.90;;;14.10;;
57337;SDS011;43173;50.980;18.204;2023-10-13T09:02:11;20.20;;;13.60;;
57337;SDS011;43173;50.980;18.204;2023-10-13T09:04:42;22.80;;;13.80;;
57337;SDS011;43173;50.980;18.204;2023-10-13T09:07:10;21.70;;;12.70;;
57337;SDS011;43173;50.980;18.204;2023-10-13T09:09:49;25.00;;;12.70;;
57337;SDS011;43173;50.980;18.204;2023-10-13T09:12:20;22.40;;;11.90;;
57337;SDS011;43173;50.980;18.204;2023-10-13T09:15:08;19.60;;;12.10;;
57337;SDS011;43173;50.980;18.204;2023-10-13T09:17:41;26.30;;;11.80;;
57337;SDS011;43173;50.980;18.204;2023-10-13T09:20:27;18.90;;;11.20;;
57337;SDS011;43173;50.980;18.204;2023-10-13T09:23:11;25.00;;;11.60;;
57337;SDS011;43173;50.980;18.204;2023-10-13T09:28:34;17.70;;;11.10;;
57337;SDS011;43173;50.980;18.204;2023-10-13T09:31:02;17.60;;;10.80;;
57337;SDS011;43173;50.980;18.204;2023-10-13T09:33:33;17.70;;;11.20;;
57337;SDS011;43173;50.980;18.204;2023-10-13T09:36:01;20.60;;;11.70;;
57337;SDS011;43173;50.980;18.204;2023-10-13T09:38:36;18.30;;;11.60;;
57337;SDS011;43173;50.980;18.204;2023-10-13T09:41:06;16.60;;;11.00;;
57337;SDS011;43173;50.980;18.204;2023-10-13T09:43:48;16.40;;;11.10;;
57337;SDS011;43173;50.980;18.204;2023-10-13T09:46:19;16.40;;;10.20;;
57337;SDS011;43173;50.980;18.204;2023-10-13T09:48:48;16.00;;;10.10;;
57337;SDS011;43173;50.980;18.204;2023-10-13T09:51:30;15.10;;;10.30;;
57337;SDS011;43173;50.980;18.204;2023-10-13T09:54:02;15.30;;;9.80;;
57337;SDS011;43173;50.980;18.204;2023-10-13T09:57:08;17.70;;;9.90;;
57337;SDS011;43173;50.980;18.204;2023-10-13T10:02:18;13.60;;;9.30;;
57337;SDS011;43173;50.980;18.204;2023-10-13T10:04:52;16.00;;;9.00;;
57337;SDS011;43173;50.980;18.204;2023-10-13T10:07:25;11.70;;;8.20;;
57337;SDS011;43173;50.980;18.204;2023-10-13T10:09:58;12.30;;;8.20;;
57337;SDS011;43173;50.980;18.204;2023-10-13T10:17:59;14.30;;;7.30;;
57337;SDS011;43173;50.980;18.204;2023-10-13T10:20:29;10.80;;;6.40;;
57337;SDS011;43173;50.980;18.204;2023-10-13T10:23:07;9.40;;;5.80;;
57337;SDS011;43173;50.980;18.204;2023-10-13T10:25:38;8.70;;;6.00;;
57337;SDS011;43173;50.980;18.204;2023-10-13T10:28:10;12.70;;;6.00;;
57337;SDS011;43173;50.980;18.204;2023-10-13T10:33:07;7.20;;;5.70;;
57337;SDS011;43173;50.980;18.204;2023-10-13T10:35:58;12.30;;;6.10;;
57337;SDS011;43173;50.980;18.204;2023-10-13T10:38:24;7.80;;;5.80;;
57337;SDS011;43173;50.980;18.204;2023-10-13T10:41:01;10.80;;;5.90;;
57337;SDS011;43173;50.980;18.204;2023-10-13T10:46:17;12.60;;;5.50;;
57337;SDS011;43173;50.980;18.204;2023-10-13T10:48:43;8.40;;;5.30;;
57337;SDS011;43173;50.980;18.204;2023-10-13T10:51:09;6.70;;;5.20;;
57337;SDS011;43173;50.980;18.204;2023-10-13T10:53:40;7.30;;;4.90;;
57337;SDS011;43173;50.980;18.204;2023-10-13T10:56:09;9.40;;;5.20;;
57337;SDS011;43173;50.980;18.204;2023-10-13T10:58:57;8.50;;;5.30;;
57337;SDS011;43173;50.980;18.204;2023-10-13T11:01:25;10.40;;;5.50;;
57337;SDS011;43173;50.980;18.204;2023-10-13T11:03:59;7.90;;;5.30;;
57337;SDS011;43173;50.980;18.204;2023-10-13T11:06:46;9.10;;;5.00;;
57337;SDS011;43173;50.980;18.204;2023-10-13T11:21:42;7.40;;;4.80;;
57337;SDS011;43173;50.980;18.204;2023-10-13T11:24:08;8.10;;;3.90;;
57337;SDS011;43173;50.980;18.204;2023-10-13T11:26:34;7.40;;;3.90;;
57337;SDS011;43173;50.980;18.204;2023-10-13T11:29:08;6.50;;;4.00;;
57337;SDS011;43173;50.980;18.204;2023-10-13T11:31:35;9.40;;;4.70;;
57337;SDS011;43173;50.980;18.204;2023-10-13T11:36:36;5.60;;;4.20;;
57337;SDS011;43173;50.980;18.204;2023-10-13T11:39:02;5.20;;;3.90;;
57337;SDS011;43173;50.980;18.204;2023-10-13T11:41:28;6.80;;;3.90;;
57337;SDS011;43173;50.980;18.204;2023-10-13T11:44:03;7.80;;;4.50;;
57337;SDS011;43173;50.980;18.204;2023-10-13T11:46:44;6.80;;;4.10;;
57337;SDS011;43173;50.980;18.204;2023-10-13T11:49:13;7.50;;;4.30;;
57337;SDS011;43173;50.980;18.204;2023-10-13T11:51:39;5.60;;;4.40;;
57337;SDS011;43173;50.980;18.204;2023-10-13T11:54:08;8.00;;;4.70;;
57337;SDS011;43173;50.980;18.204;2023-10-13T11:56:34;6.50;;;4.00;;
57337;SDS011;43173;50.980;18.204;2023-10-13T11:58:59;4.40;;;3.60;;
57337;SDS011;43173;50.980;18.204;2023-10-13T12:01:27;6.00;;;4.00;;
57337;SDS011;43173;50.980;18.204;2023-10-13T12:04:09;6.50;;;3.80;;
57337;SDS011;43173;50.980;18.204;2023-10-13T12:06:50;5.80;;;3.60;;
57337;SDS011;43173;50.980;18.204;2023-10-13T12:09:36;5.40;;;3.40;;
57337;SDS011;43173;50.980;18.204;2023-10-13T12:12:23;6.60;;;3.70;;
57337;SDS011;43173;50.980;18.204;2023-10-13T12:14:49;7.50;;;3.70;;
57337;SDS011;43173;50.980;18.204;2023-10-13T12:17:18;5.40;;;3.70;;
57337;SDS011;43173;50.980;18.204;2023-10-13T12:19:55;5.50;;;3.30;;
57337;SDS011;43173;50.980;18.204;2023-10-13T12:22:22;4.50;;;3.40;;
57337;SDS011;43173;50.980;18.204;2023-10-13T12:25:03;4.90;;;3.30;;
57337;SDS011;43173;50.980;18.204;2023-10-13T12:27:48;5.50;;;3.60;;
57337;SDS011;43173;50.980;18.204;2023-10-13T12:30:15;8.60;;;3.80;;
57337;SDS011;43173;50.980;18.204;2023-10-13T12:32:49;4.70;;;3.70;;
57337;SDS011;43173;50.980;18.204;2023-10-13T12:35:33;6.00;;;3.50;;
57337;SDS011;43173;50.980;18.204;2023-10-13T12:38:16;4.40;;;3.30;;
57337;SDS011;43173;50.980;18.204;2023-10-13T12:40:57;5.60;;;3.30;;
57337;SDS011;43173;50.980;18.204;2023-10-13T12:43:39;5.70;;;3.20;;
57337;SDS011;43173;50.980;18.204;2023-10-13T12:46:20;6.00;;;3.50;;
57337;SDS011;43173;50.980;18.204;2023-10-13T12:49:02;7.30;;;3.40;;
57337;SDS011;43173;50.980;18.204;2023-10-13T12:51:43;5.70;;;3.40;;
57337;SDS011;43173;50.980;18.204;2023-10-13T12:54:16;6.20;;;3.50;;
57337;SDS011;43173;50.980;18.204;2023-10-13T12:56:57;5.50;;;3.10;;
57337;SDS011;43173;50.980;18.204;2023-10-13T12:59:23;6.20;;;3.30;;
57337;SDS011;43173;50.980;18.204;2023-10-13T13:01:52;3.40;;;2.90;;
57337;SDS011;43173;50.980;18.204;2023-10-13T13:04:18;6.50;;;3.30;;
57337;SDS011;43173;50.980;18.204;2023-10-13T13:06:49;9.40;;;3.80;;
57337;SDS011;43173;50.980;18.204;2023-10-13T13:09:15;3.90;;;2.80;;
57337;SDS011;43173;50.980;18.204;2023-10-13T13:11:54;7.00;;;3.20;;
57337;SDS011;43173;50.980;18.204;2023-10-13T13:14:23;4.40;;;3.10;;
57337;SDS011;43173;50.980;18.204;2023-10-13T13:16:55;4.10;;;2.90;;
57337;SDS011;43173;50.980;18.204;2023-10-13T13:19:34;6.00;;;3.60;;
57337;SDS011;43173;50.980;18.204;2023-10-13T13:22:02;6.80;;;3.00;;
57337;SDS011;43173;50.980;18.204;2023-10-13T13:24:29;6.30;;;3.10;;
57337;SDS011;43173;50.980;18.204;2023-10-13T13:26:57;4.80;;;3.40;;
57337;SDS011;43173;50.980;18.204;2023-10-13T13:31:57;6.00;;;3.30;;
57337;SDS011;43173;50.980;18.204;2023-10-13T13:34:23;5.60;;;2.90;;
57337;SDS011;43173;50.980;18.204;2023-10-13T13:36:48;5.10;;;3.20;;
57337;SDS011;43173;50.980;18.204;2023-10-13T13:39:20;4.30;;;3.20;;
57337;SDS011;43173;50.980;18.204;2023-10-13T13:41:54;4.10;;;3.00;;
57337;SDS011;43173;50.980;18.204;2023-10-13T13:44:25;6.60;;;3.30;;
57337;SDS011;43173;50.980;18.204;2023-10-13T13:47:01;5.60;;;3.10;;
57337;SDS011;43173;50.980;18.204;2023-10-13T13:49:43;5.60;;;3.30;;
57337;SDS011;43173;50.980;18.204;2023-10-13T13:52:17;3.90;;;2.90;;
57337;SDS011;43173;50.980;18.204;2023-10-13T13:54:47;5.90;;;3.30;;
57337;SDS011;43173;50.980;18.204;2023-10-13T13:57:13;7.00;;;3.50;;
57337;SDS011;43173;50.980;18.204;2023-10-13T13:59:39;5.00;;;3.20;;
57337;SDS011;43173;50.980;18.204;2023-10-13T14:02:09;4.70;;;3.50;;
57337;SDS011;43173;50.980;18.204;2023-10-13T14:04:50;5.20;;;3.50;;
57337;SDS011;43173;50.980;18.204;2023-10-13T14:07:20;5.40;;;3.50;;
57337;SDS011;43173;50.980;18.204;2023-10-13T14:09:49;5.50;;;3.30;;
57337;SDS011;43173;50.980;18.204;2023-10-13T14:12:20;5.10;;;3.40;;
57337;SDS011;43173;50.980;18.204;2023-10-13T14:14:55;4.70;;;3.20;;
57337;SDS011;43173;50.980;18.204;2023-10-13T14:17:22;7.30;;;3.40;;
57337;SDS011;43173;50.980;18.204;2023-10-13T14:20:04;5.50;;;3.60;;
57337;SDS011;43173;50.980;18.204;2023-10-13T14:22:40;7.70;;;3.70;;
57337;SDS011;43173;50.980;18.204;2023-10-13T14:25:06;4.60;;;3.40;;
57337;SDS011;43173;50.980;18.204;2023-10-13T14:27:34;8.60;;;3.50;;
57337;SDS011;43173;50.980;18.204;2023-10-13T14:30:01;6.20;;;3.70;;
57337;SDS011;43173;50.980;18.204;2023-10-13T14:32:28;4.40;;;3.40;;
57337;SDS011;43173;50.980;18.204;2023-10-13T14:34:54;4.80;;;3.80;;
57337;SDS011;43173;50.980;18.204;2023-10-13T14:37:21;5.20;;;3.40;;
57337;SDS011;43173;50.980;18.204;2023-10-13T14:39:56;5.30;;;3.50;;
57337;SDS011;43173;50.980;18.204;2023-10-13T14:42:26;4.30;;;3.30;;
57337;SDS011;43173;50.980;18.204;2023-10-13T14:44:53;7.60;;;3.60;;
57337;SDS011;43173;50.980;18.204;2023-10-13T14:47:24;7.40;;;3.20;;
57337;SDS011;43173;50.980;18.204;2023-10-13T14:49:51;5.00;;;3.50;;
57337;SDS011;43173;50.980;18.204;2023-10-13T14:52:23;4.60;;;3.50;;
57337;SDS011;43173;50.980;18.204;2023-10-13T14:54:49;5.40;;;3.70;;
57337;SDS011;43173;50.980;18.204;2023-10-13T14:57:21;6.60;;;3.60;;
57337;SDS011;43173;50.980;18.204;2023-10-13T14:59:54;5.60;;;3.20;;
57337;SDS011;43173;50.980;18.204;2023-10-13T15:02:20;5.60;;;3.60;;
57337;SDS011;43173;50.980;18.204;2023-10-13T15:04:47;7.00;;;4.00;;
57337;SDS011;43173;50.980;18.204;2023-10-13T15:07:16;6.20;;;3.50;;
57337;SDS011;43173;50.980;18.204;2023-10-13T15:09:43;5.50;;;3.70;;
57337;SDS011;43173;50.980;18.204;2023-10-13T15:12:09;5.50;;;3.50;;
57337;SDS011;43173;50.980;18.204;2023-10-13T15:14:39;5.50;;;3.90;;
57337;SDS011;43173;50.980;18.204;2023-10-13T15:17:08;7.20;;;4.10;;
57337;SDS011;43173;50.980;18.204;2023-10-13T15:19:34;7.30;;;4.00;;
57337;SDS011;43173;50.980;18.204;2023-10-13T15:22:05;8.20;;;4.20;;
57337;SDS011;43173;50.980;18.204;2023-10-13T15:27:39;5.20;;;3.60;;
57337;SDS011;43173;50.980;18.204;2023-10-13T15:30:07;5.00;;;3.50;;
57337;SDS011;43173;50.980;18.204;2023-10-13T15:32:45;9.00;;;3.50;;
57337;SDS011;43173;50.980;18.204;2023-10-13T15:35:11;4.70;;;3.60;;
57337;SDS011;43173;50.980;18.204;2023-10-13T15:37:38;4.70;;;3.60;;
57337;SDS011;43173;50.980;18.204;2023-10-13T15:40:08;5.90;;;3.70;;
57337;SDS011;43173;50.980;18.204;2023-10-13T15:42:43;5.80;;;3.60;;
57337;SDS011;43173;50.980;18.204;2023-10-13T15:45:12;5.50;;;3.20;;
57337;SDS011;43173;50.980;18.204;2023-10-13T15:47:45;7.40;;;3.40;;
57337;SDS011;43173;50.980;18.204;2023-10-13T15:50:12;5.70;;;3.30;;
57337;SDS011;43173;50.980;18.204;2023-10-13T15:52:44;6.10;;;3.40;;
57337;SDS011;43173;50.980;18.204;2023-10-13T15:55:12;7.20;;;3.60;;
57337;SDS011;43173;50.980;18.204;2023-10-13T15:57:43;4.20;;;3.30;;
57337;SDS011;43173;50.980;18.204;2023-10-13T16:00:10;7.10;;;3.70;;
57337;SDS011;43173;50.980;18.204;2023-10-13T16:02:53;6.50;;;4.00;;
57337;SDS011;43173;50.980;18.204;2023-10-13T16:05:22;5.20;;;3.00;;
57337;SDS011;43173;50.980;18.204;2023-10-13T16:07:51;6.40;;;3.80;;
57337;SDS011;43173;50.980;18.204;2023-10-13T16:10:17;9.70;;;4.10;;
57337;SDS011;43173;50.980;18.204;2023-10-13T16:12:47;6.60;;;4.60;;
57337;SDS011;43173;50.980;18.204;2023-10-13T16:15:12;5.20;;;3.70;;
57337;SDS011;43173;50.980;18.204;2023-10-13T16:17:41;5.90;;;3.30;;